Time;durP1;ratioP1;P1;durP2;ratioP2;P2;SDS_P1;SDS_P2;PMS_P1;PMS_P2;Temp;Humidity;BMP_temperature;BMP_pressure;BME280_temperature;BME280_humidity;BME280_pressure;Samples;Min_cycle;Max_cycle;Signal;HPM_P1;HPM_P2
2023/09/03 00:00:01;;;;;;;4.35;1.85;;;;;;;17.31;72.21;101370.13;2069084;28;20785;-71
2023/09/03 00:01:12;;;;;;;5.05;2.08;;;;;;;17.31;72.30;101374.75;2070150;28;20030;-70
2023/09/03 00:02:14;;;;;;;2.97;1.77;;;;;;;17.28;72.37;101378.88;2062109;28;21001;-70
2023/09/03 00:03:23;;;;;;;3.28;1.75;;;;;;;17.27;72.47;101373.72;2056422;28;20153;-71
2023/09/03 00:04:25;;;;;;;3.88;2.05;;;;;;;17.28;72.41;101373.44;2061657;28;20113;-71
2023/09/03 00:05:29;;;;;;;3.85;1.65;;;;;;;17.30;72.70;101373.94;2061127;28;20035;-71
2023/09/03 00:06:32;;;;;;;5.78;1.90;;;;;;;17.30;72.51;101378.56;2061862;28;20153;-71
2023/09/03 00:07:33;;;;;;;3.38;1.70;;;;;;;17.28;72.72;101373.44;2053195;28;20045;-71
2023/09/03 00:08:38;;;;;;;2.78;1.67;;;;;;;17.29;72.79;101374.25;2057490;28;20042;-70
2023/09/03 00:09:39;;;;;;;3.67;1.70;;;;;;;17.27;72.90;101371.81;2077331;28;21478;-70
2023/09/03 00:10:45;;;;;;;3.92;1.83;;;;;;;17.27;73.06;101371.81;2068956;28;21351;-70
2023/09/03 00:11:51;;;;;;;5.18;2.03;;;;;;;17.27;73.02;101369.09;2062180;28;20031;-71
2023/09/03 00:12:52;;;;;;;4.28;1.90;;;;;;;17.25;73.10;101376.75;2070452;28;20738;-71
2023/09/03 00:13:59;;;;;;;5.28;1.92;;;;;;;17.25;73.03;101365.91;2069163;28;20864;-71
2023/09/03 00:15:01;;;;;;;5.88;2.58;;;;;;;17.27;73.19;101368.28;2060976;28;20038;-71
2023/09/03 00:16:03;;;;;;;4.35;1.90;;;;;;;17.27;73.21;101373.72;2077330;28;20044;-71
2023/09/03 00:17:14;;;;;;;3.03;1.63;;;;;;;17.28;73.23;101368.00;2052144;28;20964;-71
2023/09/03 00:18:15;;;;;;;3.90;1.80;;;;;;;17.28;73.25;101367.22;2057135;28;20034;-71
2023/09/03 00:19:19;;;;;;;4.78;1.90;;;;;;;17.29;73.21;101368.81;2069665;28;20788;-71
2023/09/03 00:20:24;;;;;;;5.20;1.90;;;;;;;17.30;73.35;101368.50;2062132;28;20140;-70
2023/09/03 00:21:26;;;;;;;4.65;2.33;;;;;;;17.30;73.22;101364.97;2062408;28;20122;-70
2023/09/03 00:22:28;;;;;;;4.25;1.92;;;;;;;17.28;73.50;101364.50;2061668;28;20039;-70
2023/09/03 00:23:30;;;;;;;4.57;2.08;;;;;;;17.27;73.45;101369.09;2061569;28;20038;-71
2023/09/03 00:24:35;;;;;;;4.18;1.80;;;;;;;17.27;73.44;101360.13;2052713;28;20051;-70
2023/09/03 00:25:36;;;;;;;4.95;1.83;;;;;;;17.25;73.30;101368.63;2052651;28;20035;-71
2023/09/03 00:26:38;;;;;;;2.58;1.55;;;;;;;17.24;73.62;101358.84;2058946;28;20040;-71
2023/09/03 00:27:39;;;;;;;5.18;1.92;;;;;;;17.25;73.67;101357.75;2077318;28;20919;-71
2023/09/03 00:28:42;;;;;;;3.35;1.85;;;;;;;17.25;73.67;101359.66;2061142;28;20156;-71
2023/09/03 00:29:43;;;;;;;3.35;1.70;;;;;;;17.24;73.63;101366.97;2052336;28;20058;-71
2023/09/03 00:31:10;;;;;;;5.75;1.83;;;;;;;17.24;73.92;101358.84;2053268;28;21679;-71
2023/09/03 00:32:12;;;;;;;4.22;2.25;;;;;;;17.25;73.84;101362.38;2066825;28;20032;-71
2023/09/03 00:33:14;;;;;;;4.30;1.80;;;;;;;17.25;73.86;101355.03;2069234;28;20056;-71
2023/09/03 00:34:17;;;;;;;3.25;1.85;;;;;;;17.25;73.80;101360.47;2068689;28;20068;-71
2023/09/03 00:35:18;;;;;;;4.28;1.90;;;;;;;17.23;73.68;101356.44;2061051;28;20042;-71
2023/09/03 00:36:22;;;;;;;4.07;1.73;;;;;;;17.25;73.93;101354.22;2045193;28;20046;-71
2023/09/03 00:37:23;;;;;;;4.25;1.70;;;;;;;17.24;73.87;101350.69;2060556;28;20038;-71
2023/09/03 00:38:27;;;;;;;3.60;2.05;;;;;;;17.24;73.91;101358.84;2069692;28;20045;-71
2023/09/03 00:39:34;;;;;;;5.30;1.73;;;;;;;17.22;73.94;101352.91;2062115;28;20882;-70
2023/09/03 00:40:39;;;;;;;3.33;1.70;;;;;;;17.25;73.97;101355.03;2061841;28;20077;-70
2023/09/03 00:41:43;;;;;;;4.07;1.73;;;;;;;17.26;73.91;101364.78;2061736;28;20149;-71
2023/09/03 00:42:46;;;;;;;3.95;1.65;;;;;;;17.24;74.01;101361.53;2060741;28;20045;-70
2023/09/03 00:43:50;;;;;;;2.25;1.60;;;;;;;17.25;74.11;101354.22;2053562;28;20423;-71
2023/09/03 00:44:52;;;;;;;5.10;2.03;;;;;;;17.25;74.29;101354.22;2060691;28;20061;-71
2023/09/03 00:45:53;;;;;;;5.93;1.88;;;;;;;17.22;74.21;101350.19;2061336;28;20034;-71
2023/09/03 00:46:58;;;;;;;6.63;2.33;;;;;;;17.23;74.28;101351.78;2068934;28;20132;-71
2023/09/03 00:48:00;;;;;;;3.92;2.15;;;;;;;17.22;74.47;101350.19;2069457;28;22698;-71
2023/09/03 00:49:03;;;;;;;3.58;1.80;;;;;;;17.22;74.61;101349.41;2069159;28;20896;-71
2023/09/03 00:50:08;;;;;;;5.07;2.00;;;;;;;17.21;74.53;101350.47;2069039;28;20832;-71
2023/09/03 00:51:11;;;;;;;7.68;2.00;;;;;;;17.22;74.40;101350.19;2060340;28;20034;-71
2023/09/03 00:52:19;;;;;;;4.38;2.10;;;;;;;17.23;74.38;101351.00;2053382;28;21227;-71
2023/09/03 00:53:28;;;;;;;6.28;2.28;;;;;;;17.22;74.36;101347.47;2068948;28;20152;-72
2023/09/03 00:54:29;;;;;;;3.35;1.77;;;;;;;17.23;74.58;101356.44;2061893;28;20041;-72
2023/09/03 00:55:34;;;;;;;4.50;2.17;;;;;;;17.20;74.75;101341.53;2055031;28;20043;-72
2023/09/03 00:56:38;;;;;;;4.43;1.80;;;;;;;17.22;74.54;101350.19;2063594;28;20082;-71
2023/09/03 00:57:41;;;;;;;5.00;1.90;;;;;;;17.21;74.59;101353.19;2046727;28;20126;-71
2023/09/03 00:58:45;;;;;;;2.97;1.55;;;;;;;17.22;74.73;101352.91;2047486;28;20023;-71
2023/09/03 00:59:52;;;;;;;5.75;2.25;;;;;;;17.22;74.54;101344.75;2063051;28;20038;-71
2023/09/03 01:00:55;;;;;;;5.00;2.20;;;;;;;17.22;74.83;101346.69;2061580;28;20097;-72
2023/09/03 01:02:05;;;;;;;2.53;1.98;;;;;;;17.22;74.85;101355.63;2055289;28;20039;-72
2023/09/03 01:03:06;;;;;;;2.25;1.50;;;;;;;17.21;74.91;101342.34;2055043;28;20540;-71
2023/09/03 01:04:10;;;;;;;3.72;1.85;;;;;;;17.23;74.81;101340.91;2067966;28;20033;-71
2023/09/03 01:05:15;;;;;;;3.50;1.70;;;;;;;17.23;74.92;101340.91;2062530;28;21237;-71
2023/09/03 01:06:17;;;;;;;4.60;2.05;;;;;;;17.21;74.86;101340.41;2055042;28;20850;-71
2023/09/03 01:07:19;;;;;;;2.88;1.75;;;;;;;17.23;74.79;101340.13;2054278;28;21217;-71
2023/09/03 01:08:23;;;;;;;2.38;1.70;;;;;;;17.23;75.05;101335.50;2062202;28;20030;-71
2023/09/03 01:09:25;;;;;;;4.72;1.70;;;;;;;17.23;74.84;101337.41;2062990;28;20139;-71
2023/09/03 01:11:05;;;;;;;4.68;1.75;;;;;;;17.22;75.12;101339.31;2062230;28;20900;-71
2023/09/03 01:12:35;;;;;;;4.70;1.60;;;;;;;17.22;75.12;101333.09;2062751;28;20041;-70
2023/09/03 01:13:48;;;;;;;5.43;1.95;;;;;;;17.23;75.17;101330.06;2074348;28;20028;-71
2023/09/03 01:15:14;;;;;;;4.93;1.85;;;;;;;17.23;75.14;101332.78;2071145;28;20033;-70
2023/09/03 01:16:39;;;;;;;4.93;1.80;;;;;;;17.24;75.21;101333.56;2065829;28;20030;-70
2023/09/03 01:17:55;;;;;;;4.93;1.73;;;;;;;17.23;75.23;101324.63;2070475;28;20030;-71
2023/09/03 01:19:02;;;;;;;4.88;1.65;;;;;;;17.20;75.39;101324.44;2062712;28;20042;-70
2023/09/03 01:20:05;;;;;;;2.42;1.50;;;;;;;17.22;75.15;101328.44;2072209;28;20908;-71
2023/09/03 01:21:21;;;;;;;4.03;1.90;;;;;;;17.22;75.46;101325.75;2078153;28;21054;-70
2023/09/03 01:22:40;;;;;;;4.95;2.40;;;;;;;17.22;75.37;101336.59;2062321;28;20137;-70
2023/09/03 01:24:36;;;;;;;5.00;1.73;;;;;;;17.20;75.35;101325.22;2067467;28;20932;-70
2023/09/03 01:25:59;;;;;;;3.58;1.67;;;;;;;17.21;75.42;101326.03;2045473;28;20087;-70
2023/09/03 01:27:15;;;;;;;3.15;1.50;;;;;;;17.21;75.39;101326.81;2038047;28;20039;-70
2023/09/03 01:28:20;;;;;;;5.40;2.03;;;;;;;17.22;75.36;101330.38;2058905;28;20304;-70
2023/09/03 01:29:47;;;;;;;4.25;1.50;;;;;;;17.22;75.42;101327.66;2054740;28;20038;-70
2023/09/03 01:30:56;;;;;;;4.25;1.80;;;;;;;17.23;75.42;101329.25;2061016;28;20725;-71
2023/09/03 01:31:59;;;;;;;5.68;2.38;;;;;;;17.21;75.15;101326.81;2063754;28;20030;-70
2023/09/03 01:33:04;;;;;;;9.77;5.55;;;;;;;17.20;75.32;101325.22;2071692;28;20945;-70
2023/09/03 01:34:45;;;;;;;11.27;5.50;;;;;;;17.23;75.65;101338.22;2078064;28;20029;-71
2023/09/03 01:35:48;;;;;;;4.53;2.05;;;;;;;17.22;75.66;101335.81;2078174;28;20143;-71
2023/09/03 01:36:53;;;;;;;4.50;1.80;;;;;;;17.22;75.41;101339.31;2069839;28;20026;-71
2023/09/03 01:37:57;;;;;;;3.60;1.63;;;;;;;17.22;75.60;101339.31;2056235;28;20098;-71
2023/09/03 01:39:02;;;;;;;12.35;2.65;;;;;;;17.21;75.69;101343.13;2062850;28;20038;-70
2023/09/03 01:40:43;;;;;;;4.65;1.83;;;;;;;17.19;75.59;101339.13;2062533;28;20039;-69
2023/09/03 01:41:45;;;;;;;3.13;1.60;;;;;;;17.19;75.73;101334.50;2069593;28;20038;-71
2023/09/03 01:42:47;;;;;;;3.88;1.67;;;;;;;17.18;75.82;101343.78;2061184;28;20892;-71
2023/09/03 01:44:27;;;;;;;7.07;2.10;;;;;;;17.13;75.81;101333.00;2062237;28;20258;-70
2023/09/03 01:45:51;;;;;;;3.75;1.73;;;;;;;17.19;75.92;101339.13;2075489;28;20882;-70
2023/09/03 01:47:36;;;;;;;3.20;1.55;;;;;;;17.18;75.72;101343.78;2069258;28;20038;-72
2023/09/03 01:49:07;;;;;;;4.63;1.80;;;;;;;17.19;75.87;101336.41;2073934;28;20032;-71
2023/09/03 01:50:18;;;;;;;2.65;1.65;;;;;;;17.19;75.59;101336.41;2078877;28;20156;-71
2023/09/03 01:51:36;;;;;;;4.47;2.00;;;;;;;17.18;75.87;101343.78;2077428;28;20136;-71
2023/09/03 01:52:52;;;;;;;2.30;1.70;;;;;;;17.18;75.87;101341.06;2060728;28;20054;-70
2023/09/03 01:54:21;;;;;;;6.60;2.17;;;;;;;17.17;75.73;101342.13;2063169;28;20035;-71
2023/09/03 01:55:25;;;;;;;2.65;1.70;;;;;;;17.17;75.75;101341.34;2060883;28;20045;-70
2023/09/03 01:57:07;;;;;;;4.35;1.67;;;;;;;17.14;75.73;101331.88;2069380;28;21621;-71
2023/09/03 01:58:12;;;;;;;6.43;1.80;;;;;;;17.18;75.82;101338.34;2047138;28;20043;-70
2023/09/03 01:59:23;;;;;;;4.03;1.70;;;;;;;17.17;75.80;101341.34;2046937;28;20053;-70
2023/09/03 02:01:05;;;;;;;9.38;1.70;;;;;;;17.16;75.91;101335.09;2068954;28;20961;-71
2023/09/03 02:02:14;;;;;;;6.18;1.77;;;;;;;17.17;76.17;101342.13;2052875;28;20043;-71
2023/09/03 02:03:17;;;;;;;3.83;1.60;;;;;;;17.16;75.95;101345.97;2046664;28;20036;-70
2023/09/03 02:04:38;;;;;;;3.72;1.70;;;;;;;17.11;75.91;101337.91;2051746;28;21088;-71
2023/09/03 02:05:59;;;;;;;5.47;2.10;;;;;;;17.17;75.99;101357.63;2049165;28;20538;-70
2023/09/03 02:07:01;;;;;;;5.00;1.88;;;;;;;17.15;76.00;101349.81;2058279;28;20125;-70
2023/09/03 02:08:43;;;;;;;4.75;1.92;;;;;;;17.14;76.28;101350.91;2052733;28;20022;-71
2023/09/03 02:10:09;;;;;;;3.60;1.70;;;;;;;17.13;76.29;101344.66;2052094;28;21295;-71
2023/09/03 02:11:14;;;;;;;5.30;1.80;;;;;;;17.12;76.10;101339.53;2050444;28;21288;-70
2023/09/03 02:12:23;;;;;;;3.60;2.10;;;;;;;17.11;76.01;101343.34;2037889;28;20846;-70
2023/09/03 02:14:04;;;;;;;4.80;2.03;;;;;;;17.10;75.97;101353.41;2048622;28;20738;-70
2023/09/03 02:15:44;;;;;;;14.15;5.60;;;;;;;17.08;76.31;101344.75;2044088;28;20818;-70
2023/09/03 02:16:46;;;;;;;14.07;7.57;;;;;;;17.08;76.49;101346.66;2060333;28;20030;-71
2023/09/03 02:18:07;;;;;;;9.65;3.38;;;;;;;17.12;76.56;101345.78;2052694;28;20186;-70
2023/09/03 02:19:12;;;;;;;4.95;2.28;;;;;;;17.10;76.53;101347.19;2059249;28;20923;-70
2023/09/03 02:20:13;;;;;;;7.75;2.13;;;;;;;17.13;76.48;101352.00;2060617;28;20192;-71
2023/09/03 02:21:55;;;;;;;3.35;1.65;;;;;;;17.12;76.27;101351.22;2060980;28;20030;-70
2023/09/03 02:23:35;;;;;;;5.32;1.73;;;;;;;17.12;76.49;101351.22;2052243;28;20147;-70
2023/09/03 02:24:37;;;;;;;3.72;2.00;;;;;;;17.13;76.31;101346.56;2063520;28;20141;-69
2023/09/03 02:25:42;;;;;;;4.07;1.77;;;;;;;17.12;76.47;101356.66;2073446;28;20029;-70
2023/09/03 02:27:23;;;;;;;2.45;1.60;;;;;;;17.12;76.37;101344.97;2068812;28;20488;-70
2023/09/03 02:28:25;;;;;;;3.65;1.65;;;;;;;17.12;76.33;101355.84;2068842;28;20030;-70
2023/09/03 02:29:30;;;;;;;4.40;1.50;;;;;;;17.13;76.49;101352.00;2061819;28;20041;-70
2023/09/03 02:30:36;;;;;;;5.63;1.80;;;;;;;17.12;76.46;101356.66;2061345;28;20065;-70
2023/09/03 02:31:38;;;;;;;5.22;1.80;;;;;;;17.11;76.57;101348.78;2052927;28;20034;-70
2023/09/03 02:32:41;;;;;;;3.45;1.50;;;;;;;17.11;76.48;101348.78;2061205;28;20026;-71
2023/09/03 02:33:42;;;;;;;3.83;1.75;;;;;;;17.10;76.18;101347.19;2069178;28;20968;-71
2023/09/03 02:34:44;;;;;;;2.95;1.60;;;;;;;17.11;76.36;101348.78;2059938;28;20093;-70
2023/09/03 02:35:50;;;;;;;3.55;1.65;;;;;;;17.09;76.35;101353.72;2061397;28;20219;-71
2023/09/03 02:36:54;;;;;;;3.88;1.63;;;;;;;17.06;76.59;101349.72;2061548;28;20045;-70
2023/09/03 02:37:57;;;;;;;3.17;1.90;;;;;;;17.08;76.72;101355.63;2060966;28;20070;-71
2023/09/03 02:39:07;;;;;;;3.97;1.65;;;;;;;17.08;76.73;101354.81;2062889;28;20035;-70
2023/09/03 02:40:12;;;;;;;4.65;1.90;;;;;;;17.08;76.82;101365.69;2069453;28;20155;-71
2023/09/03 02:41:14;;;;;;;4.45;1.83;;;;;;;17.07;76.72;101353.22;2053499;28;20207;-70
2023/09/03 02:42:18;;;;;;;2.65;1.70;;;;;;;17.07;76.74;101353.22;2062092;28;20141;-71
2023/09/03 02:43:24;;;;;;;4.85;2.17;;;;;;;17.07;76.95;101358.66;2070419;28;20906;-71
2023/09/03 02:44:26;;;;;;;6.55;1.90;;;;;;;17.06;76.72;101363.28;2061599;28;20782;-70
2023/09/03 02:45:28;;;;;;;5.53;1.60;;;;;;;17.06;76.64;101355.13;2053769;28;20154;-70
2023/09/03 02:46:29;;;;;;;2.40;1.50;;;;;;;17.05;76.78;101361.66;2053743;28;20173;-70
2023/09/03 02:47:34;;;;;;;3.40;1.95;;;;;;;17.04;76.86;101360.06;2055387;28;20050;-69
2023/09/03 02:48:39;;;;;;;3.25;1.73;;;;;;;17.05;76.87;101353.50;2069807;28;20120;-70
2023/09/03 02:49:41;;;;;;;3.05;1.60;;;;;;;17.05;76.85;101353.50;2054709;28;20030;-69
2023/09/03 02:50:42;;;;;;;3.50;1.70;;;;;;;17.06;76.92;101354.34;2061987;28;20045;-70
2023/09/03 02:51:44;;;;;;;3.47;1.60;;;;;;;17.05;76.99;101356.22;2049933;28;20032;-70
2023/09/03 02:52:49;;;;;;;3.17;1.73;;;;;;;17.05;77.13;101360.84;2053450;28;20035;-70
2023/09/03 02:53:51;;;;;;;4.63;2.20;;;;;;;17.04;77.04;101364.69;2061669;28;20034;-70
2023/09/03 02:54:56;;;;;;;2.83;1.67;;;;;;;17.04;76.94;101359.25;2053788;28;20154;-70
2023/09/03 02:56:01;;;;;;;5.30;1.98;;;;;;;17.02;77.05;101356.84;2060950;28;20172;-70
2023/09/03 02:57:08;;;;;;;3.90;1.77;;;;;;;17.02;77.25;101361.47;2052630;28;20053;-70
2023/09/03 02:58:10;;;;;;;2.42;1.38;;;;;;;17.02;77.31;101361.47;2062251;28;20100;-71
2023/09/03 02:59:14;;;;;;;6.10;1.77;;;;;;;17.02;77.30;101361.47;2061440;28;20038;-71
2023/09/03 03:00:18;;;;;;;4.35;1.80;;;;;;;17.02;77.33;101364.19;2053682;28;20039;-70
2023/09/03 03:01:20;;;;;;;4.07;2.03;;;;;;;17.02;77.38;101364.19;2070052;28;20695;-71
2023/09/03 03:02:23;;;;;;;3.92;1.65;;;;;;;17.02;77.36;101370.41;2069616;28;20858;-70
2023/09/03 03:03:25;;;;;;;5.15;1.90;;;;;;;17.02;77.29;101370.41;2053492;28;20934;-70
2023/09/03 03:04:27;;;;;;;4.35;1.88;;;;;;;17.02;77.48;101367.69;2057156;28;20030;-70
2023/09/03 03:05:29;;;;;;;3.25;1.40;;;;;;;17.03;77.27;101376.69;2061583;28;20810;-70
2023/09/03 03:06:31;;;;;;;5.28;2.83;;;;;;;17.01;77.30;101370.72;2053984;28;20116;-70
2023/09/03 03:07:33;;;;;;;4.75;2.03;;;;;;;17.01;77.45;101365.28;2053637;28;20031;-71
2023/09/03 03:08:35;;;;;;;4.88;1.90;;;;;;;17.00;77.25;101369.13;2062163;28;20035;-71
2023/09/03 03:09:39;;;;;;;4.30;1.92;;;;;;;16.99;77.37;101362.06;2053467;28;20053;-71
2023/09/03 03:10:45;;;;;;;4.18;1.83;;;;;;;16.97;77.54;101362.38;2054680;28;20214;-71
2023/09/03 03:11:47;;;;;;;3.65;1.63;;;;;;;16.99;77.40;101362.06;2054554;28;20039;-70
2023/09/03 03:12:49;;;;;;;5.68;1.90;;;;;;;16.98;77.78;101365.91;2062511;28;20035;-70
2023/09/03 03:13:53;;;;;;;5.13;2.15;;;;;;;16.98;77.49;101374.06;2070545;28;20038;-70
2023/09/03 03:14:57;;;;;;;8.85;2.20;;;;;;;16.97;77.77;101369.72;2069122;28;20042;-70
2023/09/03 03:16:13;;;;;;;5.20;1.85;;;;;;;16.96;77.82;101365.38;2053591;28;20082;-70
2023/09/03 03:17:20;;;;;;;3.63;2.10;;;;;;;16.96;77.67;101371.66;2058309;28;20023;-70
2023/09/03 03:18:24;;;;;;;7.15;1.80;;;;;;;16.95;77.72;101361.06;2053947;28;20035;-70
2023/09/03 03:19:28;;;;;;;5.97;1.80;;;;;;;16.95;77.89;101361.06;2054065;28;20049;-70
2023/09/03 03:20:31;;;;;;;8.00;2.03;;;;;;;16.95;77.87;101366.50;2053472;28;20175;-71
2023/09/03 03:21:32;;;;;;;4.75;2.00;;;;;;;16.92;77.62;101360.56;2044577;28;20929;-71
2023/09/03 03:22:38;;;;;;;4.82;1.58;;;;;;;16.92;78.00;101365.19;2055573;28;20157;-70
2023/09/03 03:23:41;;;;;;;4.15;1.60;;;;;;;16.93;77.80;101364.09;2069597;28;20169;-70
2023/09/03 03:24:43;;;;;;;3.38;1.70;;;;;;;16.91;78.04;101356.25;2070091;28;20042;-71
2023/09/03 03:25:52;;;;;;;2.38;1.42;;;;;;;16.91;77.84;101361.66;2069656;28;20042;-70
2023/09/03 03:26:56;;;;;;;3.33;1.60;;;;;;;16.90;78.08;101362.00;2063368;28;20157;-70
2023/09/03 03:28:01;;;;;;;4.22;1.70;;;;;;;16.91;78.05;101360.88;2054538;28;20047;-70
2023/09/03 03:29:03;;;;;;;3.60;1.73;;;;;;;16.89;78.10;101363.88;2054816;28;20121;-70
2023/09/03 03:30:09;;;;;;;5.75;1.67;;;;;;;16.92;78.30;101366.00;2062262;28;20047;-70
2023/09/03 03:31:18;;;;;;;3.00;1.70;;;;;;;16.91;78.30;101360.88;2053275;28;20049;-70
2023/09/03 03:32:25;;;;;;;3.55;1.70;;;;;;;16.92;78.32;101357.03;2064485;28;20034;-70
2023/09/03 03:33:36;;;;;;;2.30;1.23;;;;;;;16.92;78.04;101368.69;2061641;28;20074;-70
2023/09/03 03:34:41;;;;;;;4.43;1.70;;;;;;;16.93;78.25;101364.09;2071412;28;20874;-70
2023/09/03 03:35:48;;;;;;;5.07;1.50;;;;;;;16.92;78.04;101366.00;2085137;28;20092;-70
2023/09/03 03:36:53;;;;;;;4.47;1.58;;;;;;;16.91;78.02;101360.88;2069607;28;20038;-70
2023/09/03 03:37:58;;;;;;;5.30;1.63;;;;;;;16.91;78.11;101367.09;2054575;28;20034;-70
2023/09/03 03:39:00;;;;;;;3.60;1.67;;;;;;;16.91;78.11;101369.03;2054863;28;20043;-70
2023/09/03 03:40:07;;;;;;;4.65;1.80;;;;;;;16.91;78.27;101366.31;2054375;28;20093;-70
2023/09/03 03:41:19;;;;;;;3.33;1.65;;;;;;;16.89;77.97;101361.16;2071354;28;20038;-71
2023/09/03 03:42:22;;;;;;;5.82;1.58;;;;;;;16.89;77.99;101369.31;2084466;28;20060;-70
2023/09/03 03:43:23;;;;;;;6.43;1.70;;;;;;;16.88;78.11;101367.69;2077785;28;20073;-71
2023/09/03 03:44:32;;;;;;;6.47;1.88;;;;;;;16.87;78.22;101363.38;2069904;28;20555;-71
2023/09/03 03:45:38;;;;;;;5.63;1.75;;;;;;;16.87;78.49;101362.59;2070669;28;20895;-71
2023/09/03 03:46:40;;;;;;;8.02;2.22;;;;;;;16.87;78.20;101368.81;2061240;28;20964;-70
2023/09/03 03:47:42;;;;;;;3.58;1.60;;;;;;;16.86;78.39;101366.38;2061102;28;20082;-71
2023/09/03 03:48:48;;;;;;;3.90;1.80;;;;;;;16.85;78.44;101373.75;2069626;28;20045;-71
2023/09/03 03:49:56;;;;;;;3.22;1.67;;;;;;;16.85;78.39;101368.31;2062439;28;20577;-71
2023/09/03 03:50:58;;;;;;;5.07;1.70;;;;;;;16.85;78.42;101372.94;2053725;28;20031;-70
2023/09/03 03:52:00;;;;;;;6.78;2.00;;;;;;;16.83;78.69;101370.50;2047724;28;20039;-71
2023/09/03 03:53:09;;;;;;;5.82;1.70;;;;;;;16.83;78.63;101370.50;2070645;28;20030;-71
2023/09/03 03:54:12;;;;;;;5.72;1.70;;;;;;;16.85;78.80;101372.94;2069856;28;20057;-71
2023/09/03 03:55:16;;;;;;;3.88;1.80;;;;;;;16.82;78.75;101368.09;2053653;28;20134;-71
2023/09/03 03:56:20;;;;;;;5.10;1.80;;;;;;;16.85;78.64;101367.50;2046648;28;20853;-71
2023/09/03 03:57:22;;;;;;;3.90;1.80;;;;;;;16.83;78.95;101364.28;2036972;28;20054;-71
2023/09/03 03:58:26;;;;;;;2.13;1.55;;;;;;;16.83;79.09;101369.72;2053431;28;20180;-71
2023/09/03 03:59:28;;;;;;;4.47;1.60;;;;;;;16.84;78.93;101374.84;2061075;28;20034;-71
2023/09/03 04:00:33;;;;;;;3.53;1.65;;;;;;;16.85;79.05;101373.75;2053630;28;20069;-71
2023/09/03 04:01:37;;;;;;;4.10;1.77;;;;;;;16.85;78.82;101379.16;2069849;28;21350;-71
2023/09/03 04:02:39;;;;;;;4.78;1.80;;;;;;;16.85;79.07;101378.38;2061332;28;20041;-71
2023/09/03 04:03:43;;;;;;;3.38;1.90;;;;;;;16.84;78.83;101376.78;2061416;28;21494;-71
2023/09/03 04:04:45;;;;;;;3.78;1.50;;;;;;;16.84;79.09;101388.44;2068652;28;20131;-71
2023/09/03 04:05:56;;;;;;;3.92;1.80;;;;;;;16.83;79.15;101386.81;2061199;28;20027;-71
2023/09/03 04:06:59;;;;;;;3.10;1.88;;;;;;;16.83;79.28;101375.13;2070692;28;20042;-71
2023/09/03 04:08:03;;;;;;;3.95;1.88;;;;;;;16.80;79.09;101378.44;2069432;28;20072;-71
2023/09/03 04:09:06;;;;;;;8.82;3.55;;;;;;;16.84;79.29;101376.78;2061278;28;20030;-71
2023/09/03 04:10:10;;;;;;;8.02;2.35;;;;;;;16.84;79.26;101377.56;2053051;28;20042;-70
2023/09/03 04:11:18;;;;;;;7.00;3.83;;;;;;;16.83;79.19;101370.50;2061831;28;20032;-71
2023/09/03 04:12:20;;;;;;;6.10;3.38;;;;;;;16.84;79.27;101377.56;2054736;28;20952;-70
2023/09/03 04:13:22;;;;;;;4.47;2.55;;;;;;;16.84;79.15;101369.41;2046104;28;20040;-70
2023/09/03 04:14:23;;;;;;;7.10;2.10;;;;;;;16.82;79.18;101374.34;2053809;28;20842;-70
2023/09/03 04:15:25;;;;;;;4.72;2.10;;;;;;;16.79;79.28;101366.00;2062395;28;20058;-70
2023/09/03 04:16:27;;;;;;;3.22;1.80;;;;;;;16.81;79.31;101375.44;2078076;28;20037;-70
2023/09/03 04:17:30;;;;;;;7.18;2.15;;;;;;;16.83;79.38;101369.72;2053034;28;20030;-71
2023/09/03 04:18:34;;;;;;;5.63;1.73;;;;;;;16.82;79.73;101371.63;2045543;28;20154;-71
2023/09/03 04:19:36;;;;;;;4.20;2.00;;;;;;;16.83;79.48;101369.72;2061339;28;20829;-71
2023/09/03 04:20:37;;;;;;;3.15;1.65;;;;;;;16.83;79.84;101375.13;2053535;28;20046;-71
2023/09/03 04:21:40;;;;;;;4.68;1.75;;;;;;;16.83;79.75;101370.50;2061567;28;20085;-71
2023/09/03 04:22:45;;;;;;;6.13;1.70;;;;;;;16.83;79.56;101373.22;2052977;28;20050;-71
2023/09/03 04:23:48;;;;;;;5.00;1.80;;;;;;;16.86;79.81;101375.34;2054339;28;20073;-71
2023/09/03 04:24:55;;;;;;;2.83;1.70;;;;;;;16.86;79.81;101378.06;2061353;28;20065;-71
2023/09/03 04:25:58;;;;;;;3.83;2.00;;;;;;;16.87;79.63;101376.16;2061401;28;20116;-71
2023/09/03 04:27:05;;;;;;;3.33;1.88;;;;;;;16.87;79.84;101382.41;2070462;28;20037;-71
2023/09/03 04:28:08;;;;;;;7.25;2.00;;;;;;;16.87;79.91;101376.97;2078185;28;20036;-71
2023/09/03 04:29:14;;;;;;;2.83;1.90;;;;;;;16.89;79.78;101368.50;2061746;28;20030;-71
2023/09/03 04:30:17;;;;;;;6.05;1.75;;;;;;;16.91;79.78;101372.53;2054969;28;20045;-71
2023/09/03 04:31:18;;;;;;;4.18;2.15;;;;;;;16.91;80.06;101361.66;2046250;28;20043;-71
2023/09/03 04:32:21;;;;;;;7.75;2.05;;;;;;;16.91;79.93;101366.31;2063478;28;20065;-71
2023/09/03 04:33:25;;;;;;;4.15;2.05;;;;;;;16.88;79.83;101362.28;2070661;28;20033;-71
2023/09/03 04:34:29;;;;;;;4.10;2.03;;;;;;;16.95;79.99;101374.66;2054596;28;20031;-71
2023/09/03 04:35:32;;;;;;;4.10;1.83;;;;;;;16.95;80.05;101366.50;2063691;28;20937;-71
2023/09/03 04:36:34;;;;;;;5.65;1.75;;;;;;;16.94;79.91;101367.63;2055566;28;20045;-70
2023/09/03 04:37:36;;;;;;;5.68;2.42;;;;;;;16.98;80.06;101365.91;2047372;28;20043;-71
2023/09/03 04:38:39;;;;;;;3.38;1.75;;;;;;;16.96;79.94;101359.94;2047618;28;20054;-71
2023/09/03 04:39:41;;;;;;;2.42;1.63;;;;;;;17.00;79.96;101361.78;2046346;28;20035;-70
2023/09/03 04:40:47;;;;;;;5.10;2.00;;;;;;;17.01;79.82;101368.00;2054602;28;20030;-71
2023/09/03 04:41:49;;;;;;;7.00;2.45;;;;;;;17.01;79.93;101370.72;2080207;28;20974;-71
2023/09/03 04:42:51;;;;;;;5.00;1.85;;;;;;;17.03;80.24;101365.81;2062457;28;20034;-70
2023/09/03 04:44:07;;;;;;;3.90;1.73;;;;;;;17.05;80.19;101371.72;2047000;28;20104;-71
2023/09/03 04:45:10;;;;;;;3.53;1.90;;;;;;;17.07;80.10;101364.09;2048788;28;20043;-71
2023/09/03 04:46:12;;;;;;;6.35;1.98;;;;;;;17.08;80.32;101365.69;2055332;28;20038;-71
2023/09/03 04:47:19;;;;;;;5.80;2.13;;;;;;;17.10;80.38;101361.56;2079006;28;20029;-71
2023/09/03 04:48:22;;;;;;;4.35;1.98;;;;;;;17.12;80.25;101375.66;2070112;28;20034;-71
2023/09/03 04:49:24;;;;;;;3.55;1.70;;;;;;;17.14;80.47;101367.19;2055025;28;20122;-71
2023/09/03 04:50:26;;;;;;;2.78;1.70;;;;;;;17.17;80.39;101369.31;2062203;28;20128;-71
2023/09/03 04:51:29;;;;;;;6.60;1.58;;;;;;;17.20;80.43;101366.00;2070637;28;21339;-71
2023/09/03 04:52:34;;;;;;;4.93;1.90;;;;;;;17.22;80.31;101369.22;2062559;28;20086;-71
2023/09/03 04:53:38;;;;;;;4.60;1.70;;;;;;;17.23;80.30;101368.09;2063751;28;20035;-71
2023/09/03 04:54:41;;;;;;;5.88;1.92;;;;;;;17.26;80.24;101372.13;2071433;28;20025;-70
2023/09/03 04:55:45;;;;;;;6.32;1.67;;;;;;;17.28;80.18;101369.94;2063385;28;20066;-70
2023/09/03 04:56:48;;;;;;;3.90;1.73;;;;;;;17.29;80.14;101372.31;2063077;28;20042;-70
2023/09/03 04:57:50;;;;;;;3.72;1.77;;;;;;;17.27;80.13;101363.66;2054138;28;20172;-70
2023/09/03 04:58:55;;;;;;;5.10;2.00;;;;;;;17.35;80.11;101376.53;2063830;28;20093;-71
2023/09/03 04:59:58;;;;;;;3.95;1.70;;;;;;;17.38;80.16;101373.22;2069593;28;20057;-71
2023/09/03 05:01:00;;;;;;;4.05;1.85;;;;;;;17.41;80.09;101371.00;2062412;28;20030;-70
2023/09/03 05:02:03;;;;;;;3.28;1.80;;;;;;;17.45;80.05;101372.81;2070646;28;20038;-70
2023/09/03 05:03:06;;;;;;;5.10;2.50;;;;;;;17.47;79.95;101377.94;2062656;28;20153;-70
2023/09/03 05:04:11;;;;;;;6.10;2.17;;;;;;;17.50;80.00;101380.06;2062850;28;20038;-71
2023/09/03 05:05:13;;;;;;;4.05;1.80;;;;;;;17.53;80.08;101384.88;2053707;28;20031;-71
2023/09/03 05:06:18;;;;;;;3.22;1.80;;;;;;;17.55;80.00;101385.38;2055241;28;20027;-71
2023/09/03 05:07:21;;;;;;;4.68;1.70;;;;;;;17.58;79.85;101387.47;2063139;28;20042;-71
2023/09/03 05:08:23;;;;;;;3.17;1.80;;;;;;;17.61;79.90;101384.94;2071024;28;20034;-71
2023/09/03 05:09:25;;;;;;;4.78;1.70;;;;;;;17.67;79.91;101393.00;2078817;28;20018;-71
2023/09/03 05:10:27;;;;;;;4.28;1.83;;;;;;;17.70;79.69;101393.19;2062206;28;20046;-71
2023/09/03 05:11:29;;;;;;;5.85;1.90;;;;;;;17.75;79.71;101384.94;2054191;28;20089;-71